Time;durP1;ratioP1;P1;durP2;ratioP2;P2;SDS_P1;SDS_P2;PMS_P1;PMS_P2;Temp;Humidity;BMP_temperature;BMP_pressure;BME280_temperature;BME280_humidity;BME280_pressure;Samples;Min_cycle;Max_cycle;Signal;HPM_P1;HPM_P2
2022/04/16 00:01:05;;;;;;;9.23;6.75;;;5.40;99.90;;;;;;4998699;28;20233;-71
2022/04/16 00:03:33;;;;;;;9.90;6.07;;;5.40;99.90;;;;;;4998438;28;20202;-70
2022/04/16 00:06:02;;;;;;;8.57;5.82;;;5.40;99.90;;;;;;4997792;28;20199;-72
2022/04/16 00:08:31;;;;;;;10.90;6.38;;;5.30;99.90;;;;;;4997092;28;20195;-69
2022/04/16 00:11:01;;;;;;;8.43;7.00;;;5.30;99.90;;;;;;4997442;28;20357;-72
2022/04/16 00:13:29;;;;;;;10.48;7.47;;;5.20;99.90;;;;;;4997638;28;20187;-71
2022/04/16 00:15:57;;;;;;;9.85;6.97;;;5.20;99.90;;;;;;4996889;28;20199;-71
2022/04/16 00:18:26;;;;;;;7.75;6.15;;;5.10;99.90;;;;;;4997532;28;20705;-71
2022/04/16 00:20:54;;;;;;;7.45;5.43;;;5.10;99.90;;;;;;4997537;28;20880;-71
2022/04/16 00:23:22;;;;;;;7.82;6.38;;;5.10;99.90;;;;;;4997615;28;20203;-72
2022/04/16 00:25:50;;;;;;;8.13;5.70;;;5.00;99.90;;;;;;4997772;27;20238;-72
2022/04/16 00:28:19;;;;;;;6.32;5.40;;;5.00;99.90;;;;;;4999070;28;20199;-73
2022/04/16 00:30:47;;;;;;;8.45;5.47;;;5.00;99.90;;;;;;4999624;28;20233;-71
2022/04/16 00:33:15;;;;;;;8.55;6.55;;;4.90;99.90;;;;;;4999020;28;20203;-71
2022/04/16 00:35:43;;;;;;;6.47;5.50;;;4.90;99.90;;;;;;4999010;28;20236;-71
2022/04/16 00:38:11;;;;;;;8.88;5.22;;;4.80;99.90;;;;;;5002885;28;20225;-71
2022/04/16 00:40:39;;;;;;;7.20;5.50;;;4.80;99.90;;;;;;5006373;28;20490;-70
2022/04/16 00:43:08;;;;;;;9.45;5.80;;;4.70;99.90;;;;;;5003575;28;20297;-68
2022/04/16 00:45:37;;;;;;;5.75;5.20;;;4.70;99.90;;;;;;5004402;28;20298;-65
2022/04/16 00:48:07;;;;;;;8.05;6.10;;;4.60;99.90;;;;;;5006689;28;20221;-64
2022/04/16 00:50:35;;;;;;;7.13;5.10;;;4.60;99.90;;;;;;5012678;28;20218;-70
2022/04/16 00:53:03;;;;;;;7.50;5.18;;;4.60;99.90;;;;;;5024965;28;20206;-70
2022/04/16 00:55:31;;;;;;;8.80;6.55;;;4.60;99.90;;;;;;5026749;28;20199;-70
2022/04/16 00:57:59;;;;;;;9.38;5.72;;;4.50;99.90;;;;;;5031627;28;20219;-70
2022/04/16 01:00:27;;;;;;;6.90;5.50;;;4.50;99.90;;;;;;5032048;28;20198;-69
2022/04/16 01:02:58;;;;;;;6.90;6.20;;;4.40;99.90;;;;;;5020992;28;20784;-69
2022/04/16 01:05:26;;;;;;;9.23;5.78;;;4.40;99.90;;;;;;5020296;28;20202;-69
2022/04/16 01:07:57;;;;;;;8.95;5.10;;;4.40;99.90;;;;;;5020456;28;20210;-69
2022/04/16 01:10:26;;;;;;;8.55;5.18;;;4.40;99.90;;;;;;5020593;28;20203;-69
2022/04/16 01:12:54;;;;;;;4.82;4.43;;;4.30;99.90;;;;;;5019809;27;20228;-69
2022/04/16 01:15:23;;;;;;;5.18;4.63;;;4.30;99.90;;;;;;5019790;28;20206;-69
2022/04/16 01:17:53;;;;;;;8.93;4.80;;;4.30;99.90;;;;;;5019926;28;20775;-69
2022/04/16 01:20:23;;;;;;;5.95;4.40;;;4.20;99.90;;;;;;5020042;28;20206;-68
2022/04/16 01:22:56;;;;;;;6.57;5.55;;;4.10;99.90;;;;;;5019565;28;20297;-68
2022/04/16 01:25:26;;;;;;;5.95;5.20;;;4.10;99.90;;;;;;5020013;28;20802;-70
2022/04/16 01:27:55;;;;;;;7.65;4.88;;;4.10;99.90;;;;;;5018986;28;20278;-70
2022/04/16 01:30:24;;;;;;;4.85;4.38;;;4.10;99.90;;;;;;5019038;27;20206;-69
2022/04/16 01:32:52;;;;;;;5.43;4.90;;;4.00;99.90;;;;;;5019296;28;20298;-67
2022/04/16 01:35:20;;;;;;;7.82;4.97;;;4.00;99.90;;;;;;5018673;27;20323;-70
2022/04/16 01:37:48;;;;;;;5.65;5.07;;;3.90;99.90;;;;;;5018875;28;20613;-71
2022/04/16 01:40:17;;;;;;;7.30;5.03;;;3.90;99.90;;;;;;5019113;28;20253;-71
2022/04/16 01:42:45;;;;;;;5.85;5.25;;;3.80;99.90;;;;;;5019428;28;20216;-66
2022/04/16 01:45:17;;;;;;;5.85;4.90;;;3.80;99.90;;;;;;5018988;28;20244;-66
2022/04/16 01:47:45;;;;;;;7.85;6.25;;;3.80;99.90;;;;;;5018097;28;20775;-71
2022/04/16 01:50:13;;;;;;;5.53;4.95;;;3.80;99.90;;;;;;5018952;28;20353;-73
2022/04/16 01:52:42;;;;;;;7.60;4.78;;;3.80;99.90;;;;;;5019566;28;20241;-73
2022/04/16 01:55:12;;;;;;;8.95;5.50;;;3.70;99.90;;;;;;5019351;28;20293;-68
2022/04/16 01:57:42;;;;;;;5.40;4.78;;;3.70;99.90;;;;;;5019541;28;20206;-71
2022/04/16 02:00:13;;;;;;;6.97;4.70;;;3.70;99.90;;;;;;5019151;28;20586;-72
2022/04/16 02:02:41;;;;;;;6.78;4.78;;;3.70;99.90;;;;;;5019597;28;20207;-72
2022/04/16 02:05:11;;;;;;;7.35;4.40;;;3.70;99.90;;;;;;5021249;28;20285;-71
2022/04/16 02:07:39;;;;;;;5.15;4.40;;;3.60;99.90;;;;;;5022040;28;20209;-71
2022/04/16 02:10:08;;;;;;;4.68;4.28;;;3.60;99.90;;;;;;5021767;28;20221;-72
2022/04/16 02:12:37;;;;;;;7.18;5.10;;;3.60;99.90;;;;;;5022597;28;20508;-72
2022/04/16 02:15:08;;;;;;;5.60;4.30;;;3.50;99.90;;;;;;5037032;28;20211;-72
2022/04/16 02:17:36;;;;;;;4.78;3.92;;;3.50;99.90;;;;;;5029675;28;20234;-72
2022/04/16 02:20:06;;;;;;;5.25;4.68;;;3.40;99.90;;;;;;5018723;28;20225;-71
2022/04/16 02:22:42;;;;;;;5.07;3.90;;;3.40;99.90;;;;;;5018813;28;20229;-72
2022/04/16 02:25:10;;;;;;;8.30;4.50;;;3.40;99.90;;;;;;5019156;28;20258;-71
2022/04/16 02:27:38;;;;;;;6.88;3.40;;;3.40;99.90;;;;;;5018860;28;20221;-71
2022/04/16 02:30:10;;;;;;;4.28;3.67;;;3.40;99.90;;;;;;5018882;28;20230;-71
2022/04/16 02:32:39;;;;;;;3.67;3.38;;;3.30;99.90;;;;;;5018346;28;20238;-70
2022/04/16 02:35:07;;;;;;;4.78;3.85;;;3.30;99.90;;;;;;5017829;28;20294;-71
2022/04/16 02:37:35;;;;;;;3.67;3.47;;;3.30;99.90;;;;;;5018249;28;20282;-73
2022/04/16 02:40:04;;;;;;;7.10;4.38;;;3.20;99.90;;;;;;5017982;28;20655;-70
2022/04/16 02:42:34;;;;;;;4.28;3.35;;;3.20;99.90;;;;;;5018417;28;20710;-70
2022/04/16 02:47:49;;;;;;;6.22;3.50;;;3.10;99.90;;;;;;5018443;28;20294;-70
2022/04/16 02:50:17;;;;;;;4.85;3.03;;;3.10;99.90;;;;;;5018533;28;20202;-71
2022/04/16 02:52:46;;;;;;;7.03;3.78;;;3.10;99.90;;;;;;5018218;28;20198;-72
2022/04/16 02:55:16;;;;;;;3.72;3.30;;;3.00;99.90;;;;;;5019088;28;20281;-71
2022/04/16 02:57:44;;;;;;;4.78;3.50;;;3.00;99.90;;;;;;5020817;28;20213;-72
2022/04/16 03:00:13;;;;;;;4.00;3.60;;;3.00;99.90;;;;;;5018460;28;20232;-71
2022/04/16 03:02:41;;;;;;;3.22;2.95;;;3.00;99.90;;;;;;5018873;28;20289;-70
2022/04/16 03:05:11;;;;;;;2.78;2.60;;;3.00;99.90;;;;;;5018680;28;20284;-70
2022/04/16 03:07:39;;;;;;;4.28;2.35;;;3.00;99.90;;;;;;5018228;28;20203;-71
2022/04/16 03:10:09;;;;;;;3.00;2.80;;;2.90;99.90;;;;;;5019271;28;20660;-71
2022/04/16 03:12:45;;;;;;;3.83;3.13;;;2.90;99.90;;;;;;5019642;28;20209;-72
2022/04/16 03:18:00;;;;;;;4.63;3.65;;;2.90;99.90;;;;;;5018089;28;20237;-74
2022/04/16 03:20:29;;;;;;;3.97;3.58;;;2.80;99.90;;;;;;5017108;28;20233;-74
2022/04/16 03:22:57;;;;;;;5.78;3.50;;;2.80;99.90;;;;;;5017618;28;20720;-72
2022/04/16 03:25:27;;;;;;;3.53;3.22;;;2.80;99.90;;;;;;5017263;28;20208;-74
2022/04/16 03:27:55;;;;;;;6.75;3.42;;;2.80;99.90;;;;;;5017272;28;20462;-73
2022/04/16 03:30:23;;;;;;;3.63;2.72;;;2.70;99.90;;;;;;5016971;28;20581;-72
2022/04/16 03:32:53;;;;;;;3.08;2.88;;;2.70;99.90;;;;;;5016680;28;20210;-73
2022/04/16 03:35:23;;;;;;;3.28;2.88;;;2.70;99.90;;;;;;5017722;28;20190;-73
2022/04/16 03:37:52;;;;;;;5.15;3.10;;;2.70;99.90;;;;;;5016593;28;20858;-72
2022/04/16 03:40:24;;;;;;;2.97;2.67;;;2.70;99.90;;;;;;5016722;28;20219;-72
2022/04/16 03:42:53;;;;;;;2.65;2.45;;;2.60;99.90;;;;;;5017177;28;20210;-72
2022/04/16 03:45:23;;;;;;;3.55;3.03;;;2.60;99.90;;;;;;5016808;28;20218;-71
2022/04/16 03:47:51;;;;;;;3.47;3.17;;;2.60;99.90;;;;;;5016944;28;20689;-73
2022/04/16 03:50:20;;;;;;;3.47;2.80;;;2.60;99.90;;;;;;5016485;28;20450;-74
2022/04/16 03:52:49;;;;;;;4.90;3.20;;;2.60;99.90;;;;;;5016748;28;20203;-72
2022/04/16 04:00:51;;;;;;;2.78;2.58;;;2.60;99.90;;;;;;5016327;28;20720;-73
2022/04/16 04:03:20;;;;;;;5.05;3.22;;;2.70;99.90;;;;;;5016343;28;20251;-73
2022/04/16 04:05:49;;;;;;;3.97;2.85;;;2.70;99.90;;;;;;5016185;28;20206;-73
2022/04/16 04:08:17;;;;;;;3.45;3.15;;;2.80;99.90;;;;;;5016273;28;20207;-74
2022/04/16 04:10:47;;;;;;;4.72;3.28;;;2.70;99.90;;;;;;5015527;28;20241;-74
2022/04/16 04:13:16;;;;;;;5.40;3.10;;;2.70;99.90;;;;;;5016402;28;20301;-74
2022/04/16 04:15:45;;;;;;;4.15;2.92;;;2.70;99.90;;;;;;5016825;28;20207;-74
2022/04/16 04:18:13;;;;;;;2.80;2.40;;;2.80;99.90;;;;;;5015892;28;20202;-74
2022/04/16 04:20:40;;;;;;;7.57;3.70;;;2.80;99.90;;;;;;5016017;28;20226;-74
2022/04/16 04:23:09;;;;;;;5.15;3.70;;;2.70;99.90;;;;;;5016444;28;20249;-74
2022/04/16 04:25:36;;;;;;;2.97;2.47;;;2.70;99.90;;;;;;5016042;28;20294;-74
2022/04/16 04:28:06;;;;;;;3.10;2.90;;;2.70;99.90;;;;;;5015976;28;20799;-72
2022/04/16 04:30:34;;;;;;;6.35;3.65;;;2.70;99.90;;;;;;5016217;28;20228;-73
2022/04/16 04:33:02;;;;;;;3.17;2.80;;;2.70;99.90;;;;;;5021640;28;20199;-75
2022/04/16 04:35:29;;;;;;;5.07;3.47;;;2.70;99.90;;;;;;5033256;28;20245;-72
2022/04/16 04:37:57;;;;;;;4.60;3.45;;;2.80;99.90;;;;;;5020558;28;20295;-72
2022/04/16 04:40:25;;;;;;;4.32;2.70;;;2.80;99.90;;;;;;5018658;28;20218;-72
2022/04/16 04:42:53;;;;;;;6.00;3.83;;;2.80;99.90;;;;;;5018622;28;20206;-72
2022/04/16 04:45:22;;;;;;;4.63;3.15;;;2.90;99.90;;;;;;5017518;28;20464;-73
2022/04/16 04:47:50;;;;;;;3.30;3.00;;;2.90;99.90;;;;;;5016608;28;20836;-73
2022/04/16 04:50:18;;;;;;;5.13;3.10;;;2.90;99.90;;;;;;5017455;28;20289;-72
2022/04/16 04:52:46;;;;;;;4.20;3.65;;;3.00;99.90;;;;;;5015187;28;20769;-73
2022/04/16 04:55:14;;;;;;;3.70;3.40;;;3.00;99.90;;;;;;5107163;27;20211;-75
2022/04/16 04:57:43;;;;;;;3.42;3.13;;;3.00;99.90;;;;;;5121202;27;20311;-74
2022/04/16 05:00:14;;;;;;;4.60;2.80;;;3.00;99.90;;;;;;5076536;27;20427;-73
2022/04/16 05:02:45;;;;;;;5.20;4.05;;;3.00;99.90;;;;;;5006774;28;20344;-74
2022/04/16 05:05:13;;;;;;;8.75;3.65;;;3.10;99.90;;;;;;5006222;28;20200;-74
2022/04/16 05:07:42;;;;;;;4.45;3.45;;;3.10;99.90;;;;;;5004288;28;20201;-76
2022/04/16 05:10:10;;;;;;;5.90;3.60;;;3.10;99.90;;;;;;5005780;28;20716;-75
2022/04/16 05:12:38;;;;;;;3.70;2.95;;;3.10;99.90;;;;;;5005361;28;20202;-74
2022/04/16 05:15:08;;;;;;;6.07;3.60;;;3.10;99.90;;;;;;5006123;28;20191;-74
2022/04/16 05:17:37;;;;;;;8.30;3.63;;;3.20;99.90;;;;;;5005204;27;20253;-73
2022/04/16 05:20:09;;;;;;;6.50;3.55;;;3.20;99.90;;;;;;5004422;28;20274;-75
2022/04/16 05:22:37;;;;;;;3.53;3.20;;;3.30;99.90;;;;;;5007540;28;20203;-74
2022/04/16 05:25:07;;;;;;;3.80;3.45;;;3.20;99.90;;;;;;5009376;27;20221;-74
2022/04/16 05:27:35;;;;;;;5.57;3.97;;;3.30;99.90;;;;;;5010458;28;20573;-73
2022/04/16 05:30:12;;;;;;;4.88;3.65;;;3.30;99.90;;;;;;5012187;28;20209;-71
2022/04/16 05:32:42;;;;;;;3.30;3.00;;;3.30;99.90;;;;;;5007085;28;20191;-74
2022/04/16 05:35:12;;;;;;;3.60;3.30;;;3.40;99.90;;;;;;5008901;28;20390;-72
2022/04/16 05:37:40;;;;;;;6.18;3.42;;;3.50;99.90;;;;;;5019856;28;20191;-69
2022/04/16 05:40:10;;;;;;;3.35;3.05;;;3.50;99.90;;;;;;5010176;28;20199;-69
2022/04/16 05:42:41;;;;;;;3.75;2.72;;;3.60;99.90;;;;;;5011470;27;20550;-71
2022/04/16 05:45:14;;;;;;;4.38;3.03;;;3.60;99.90;;;;;;5012186;27;20443;-74
2022/04/16 05:47:43;;;;;;;3.35;2.90;;;3.70;99.90;;;;;;5008869;28;20205;-72
2022/04/16 05:50:14;;;;;;;3.88;2.95;;;3.70;99.90;;;;;;5013246;28;20289;-72
2022/04/16 05:52:42;;;;;;;3.42;2.33;;;3.80;99.90;;;;;;5038734;28;20489;-71
2022/04/16 05:55:11;;;;;;;2.90;2.70;;;3.80;99.90;;;;;;5075878;27;20202;-71
2022/04/16 05:57:39;;;;;;;3.25;2.65;;;3.90;99.90;;;;;;5039260;27;20224;-72
2022/04/16 06:00:12;;;;;;;3.22;2.88;;;4.00;99.90;;;;;;5012243;28;20195;-70
2022/04/16 06:02:41;;;;;;;2.97;2.42;;;4.00;99.90;;;;;;5010039;28;20187;-72
2022/04/16 06:05:09;;;;;;;3.53;2.38;;;4.10;99.90;;;;;;5009833;28;20213;-71
2022/04/16 06:07:39;;;;;;;4.97;3.05;;;4.20;99.90;;;;;;5006840;27;20203;-73
2022/04/16 06:10:07;;;;;;;2.42;2.20;;;4.30;99.90;;;;;;5011548;28;20286;-73
2022/04/16 06:12:35;;;;;;;1.90;1.80;;;4.40;99.90;;;;;;5013322;28;20283;-73
2022/04/16 06:15:03;;;;;;;6.63;2.97;;;4.50;99.90;;;;;;5009085;28;20203;-72
2022/04/16 06:17:31;;;;;;;2.50;2.40;;;4.50;99.90;;;;;;5014095;28;20194;-74
2022/04/16 06:19:58;;;;;;;2.30;2.20;;;4.60;99.90;;;;;;5025569;28;20206;-73
2022/04/16 06:22:26;;;;;;;2.83;2.30;;;4.70;99.90;;;;;;5025196;28;20222;-74
2022/04/16 06:24:55;;;;;;;2.55;2.35;;;4.80;99.90;;;;;;5027423;28;20673;-73
2022/04/16 06:27:23;;;;;;;3.15;1.77;;;4.90;99.90;;;;;;5034810;28;20200;-73
2022/04/16 06:29:54;;;;;;;3.45;2.10;;;5.00;99.90;;;;;;5049118;28;20198;-74
2022/04/16 06:32:22;;;;;;;2.42;2.13;;;5.10;99.90;;;;;;5044892;28;20797;-74
2022/04/16 06:34:50;;;;;;;1.65;1.33;;;5.10;99.90;;;;;;5017587;27;20198;-73
2022/04/16 06:37:19;;;;;;;1.60;1.50;;;5.20;99.90;;;;;;5007923;27;20659;-74
2022/04/16 06:39:46;;;;;;;1.48;1.35;;;5.40;99.90;;;;;;5007022;27;20634;-74
2022/04/16 06:42:16;;;;;;;1.73;1.63;;;5.50;99.90;;;;;;4999152;28;20227;-73
2022/04/16 06:44:44;;;;;;;2.88;1.40;;;5.50;99.90;;;;;;4998217;28;20290;-74
2022/04/16 06:47:11;;;;;;;3.53;1.42;;;5.50;99.90;;;;;;5000672;27;20302;-74
2022/04/16 06:49:39;;;;;;;1.85;1.67;;;5.60;99.90;;;;;;4999226;28;20203;-72
2022/04/16 06:52:08;;;;;;;2.15;1.40;;;5.70;99.90;;;;;;5002006;28;20479;-72
2022/04/16 06:54:36;;;;;;;1.50;1.40;;;5.90;99.90;;;;;;5017225;28;20207;-72
2022/04/16 06:57:05;;;;;;;3.00;1.80;;;6.00;99.90;;;;;;5003891;27;20296;-72
2022/04/16 06:59:34;;;;;;;1.80;1.67;;;6.10;99.90;;;;;;4998026;28;20572;-74
2022/04/16 07:02:02;;;;;;;1.45;1.20;;;6.10;99.90;;;;;;5020812;28;20674;-73
2022/04/16 07:04:33;;;;;;;2.15;1.10;;;6.20;99.90;;;;;;5041058;28;20206;-73
2022/04/16 07:07:00;;;;;;;1.58;1.48;;;6.30;99.90;;;;;;5041231;28;20212;-73
2022/04/16 07:09:28;;;;;;;1.17;0.93;;;6.40;99.90;;;;;;5037463;28;20206;-74
2022/04/16 07:11:57;;;;;;;1.10;0.88;;;6.40;99.90;;;;;;5042174;28;20249;-72
2022/04/16 07:14:25;;;;;;;1.80;0.95;;;6.50;99.90;;;;;;5043263;28;20284;-71
2022/04/16 07:16:55;;;;;;;1.02;0.93;;;6.50;99.90;;;;;;5035361;27;20262;-72
2022/04/16 07:19:24;;;;;;;1.95;0.90;;;6.60;99.90;;;;;;5023510;28;20289;-73
2022/04/16 07:21:54;;;;;;;1.10;1.00;;;6.70;99.90;;;;;;5052532;27;20233;-72
2022/04/16 07:24:22;;;;;;;0.93;0.93;;;6.80;99.90;;;;;;5052273;27;20708;-72
2022/04/16 07:26:52;;;;;;;0.65;0.65;;;6.90;99.90;;;;;;5038666;27;20228;-73
2022/04/16 07:29:21;;;;;;;0.80;0.80;;;7.00;99.90;;;;;;5030869;27;20206;-71
2022/04/16 07:31:52;;;;;;;0.90;0.80;;;7.00;99.90;;;;;;5021670;28;20283;-71
2022/04/16 07:34:21;;;;;;;1.38;1.00;;;7.00;99.90;;;;;;5004478;27;20302;-72
2022/04/16 07:36:50;;;;;;;0.95;0.82;;;7.10;99.90;;;;;;4997983;28;20211;-73
2022/04/16 07:39:18;;;;;;;0.63;0.63;;;7.20;99.90;;;;;;4997797;28;20274;-73
2022/04/16 07:41:46;;;;;;;1.33;0.80;;;7.20;99.90;;;;;;5007847;27;20427;-72
2022/04/16 07:44:15;;;;;;;1.70;1.45;;;7.30;99.90;;;;;;5017573;28;20329;-71
2022/04/16 07:46:43;;;;;;;3.22;0.82;;;7.30;99.90;;;;;;5016550;28;20704;-71
2022/04/16 07:49:11;;;;;;;1.15;0.82;;;7.30;99.90;;;;;;5017571;28;20609;-73
2022/04/16 07:51:40;;;;;;;0.63;0.63;;;7.40;99.90;;;;;;5017035;28;20218;-71
2022/04/16 07:54:08;;;;;;;0.50;0.50;;;7.50;99.90;;;;;;5022191;27;20537;-72
2022/04/16 07:56:36;;;;;;;1.27;1.00;;;7.60;99.90;;;;;;5036503;28;20247;-71
2022/04/16 07:59:04;;;;;;;1.02;0.88;;;7.60;99.90;;;;;;5036614;28;20210;-73
2022/04/16 08:01:32;;;;;;;0.85;0.85;;;7.70;99.90;;;;;;5037075;28;20854;-70
2022/04/16 08:04:01;;;;;;;1.80;1.00;;;7.80;99.90;;;;;;5038167;27;20680;-70
2022/04/16 08:06:29;;;;;;;1.45;0.90;;;7.80;99.90;;;;;;5039383;28;20202;-72
2022/04/16 08:09:01;;;;;;;1.50;1.25;;;7.90;99.90;;;;;;5037791;28;20644;-71
2022/04/16 08:11:32;;;;;;;1.38;1.13;;;8.00;99.90;;;;;;5036961;27;20354;-71
2022/04/16 08:14:00;;;;;;;2.53;1.10;;;8.10;99.90;;;;;;5037405;28;20215;-70
2022/04/16 08:16:29;;;;;;;1.20;1.20;;;8.30;99.90;;;;;;5039266;28;20462;-72
2022/04/16 08:18:57;;;;;;;1.20;1.05;;;8.40;99.90;;;;;;5037375;28;20217;-71
2022/04/16 08:21:26;;;;;;;1.55;1.23;;;8.50;99.90;;;;;;5038611;28;20257;-71
2022/04/16 08:24:04;;;;;;;2.85;0.60;;;8.60;99.90;;;;;;5037642;28;20253;-72
2022/04/16 08:26:33;;;;;;;1.90;0.95;;;8.60;99.90;;;;;;5036359;28;20204;-72
2022/04/16 08:29:02;;;;;;;1.08;0.82;;;8.60;99.90;;;;;;5038107;28;20722;-72
2022/04/16 08:31:30;;;;;;;0.85;0.70;;;8.70;99.90;;;;;;5032012;28;20229;-71
2022/04/16 08:33:59;;;;;;;1.55;0.98;;;8.80;99.90;;;;;;5017439;27;20365;-72
2022/04/16 08:36:27;;;;;;;0.63;0.63;;;8.80;99.90;;;;;;5017339;28;20274;-73
2022/04/16 08:38:55;;;;;;;1.33;1.33;;;8.80;99.90;;;;;;5017479;28;20237;-72
2022/04/16 08:41:26;;;;;;;2.17;0.70;;;8.90;99.90;;;;;;5016989;28;20226;-72
2022/04/16 08:43:57;;;;;;;0.50;0.50;;;8.90;99.90;;;;;;5017256;28;20615;-72
2022/04/16 08:46:28;;;;;;;1.30;0.73;;;8.90;99.90;;;;;;5016758;28;20210;-72
2022/04/16 08:49:01;;;;;;;0.90;0.90;;;8.90;99.90;;;;;;5016754;28;20257;-71
2022/04/16 08:51:30;;;;;;;1.00;1.00;;;9.00;99.90;;;;;;5016373;28;20720;-72
2022/04/16 08:53:58;;;;;;;1.77;1.20;;;9.10;99.90;;;;;;5015945;28;20607;-69
2022/04/16 08:56:25;;;;;;;0.60;0.60;;;9.00;99.90;;;;;;5016067;28;20301;-70
2022/04/16 08:58:53;;;;;;;1.08;0.90;;;9.10;99.90;;;;;;5019397;28;20654;-69
2022/04/16 09:01:23;;;;;;;0.77;0.70;;;9.10;99.90;;;;;;5018997;27;20218;-69
2022/04/16 09:03:55;;;;;;;1.58;1.00;;;9.20;99.90;;;;;;5025370;28;20222;-73
2022/04/16 09:06:24;;;;;;;1.33;0.70;;;9.20;99.90;;;;;;5019561;28;20492;-76
2022/04/16 09:08:52;;;;;;;0.82;0.77;;;9.30;99.90;;;;;;5033088;28;20369;-70
2022/04/16 09:11:22;;;;;;;2.58;1.10;;;9.40;99.90;;;;;;5036941;28;20730;-72
2022/04/16 09:13:53;;;;;;;0.70;0.70;;;9.40;99.90;;;;;;5033493;28;20215;-70
2022/04/16 09:16:23;;;;;;;0.90;0.90;;;9.50;99.90;;;;;;5038912;28;20748;-71
2022/04/16 09:18:52;;;;;;;0.60;0.60;;;9.50;99.90;;;;;;5031044;28;20198;-72
2022/04/16 09:21:25;;;;;;;0.77;0.77;;;9.50;99.90;;;;;;5039885;28;20648;-70
2022/04/16 09:23:59;;;;;;;0.70;0.68;;;9.50;99.90;;;;;;5028848;28;20257;-70
2022/04/16 09:26:28;;;;;;;1.42;0.60;;;9.50;99.90;;;;;;5021722;28;20287;-72
2022/04/16 09:28:56;;;;;;;1.23;0.73;;;9.60;99.90;;;;;;5021827;28;20207;-73
2022/04/16 09:31:29;;;;;;;0.40;0.30;;;9.70;99.90;;;;;;5023278;28;20449;-71
2022/04/16 09:33:57;;;;;;;1.70;0.50;;;9.70;99.90;;;;;;5039808;28;20217;-70
2022/04/16 09:36:25;;;;;;;0.77;0.60;;;9.80;99.90;;;;;;5039558;27;20687;-73
2022/04/16 09:39:07;;;;;;;0.90;0.90;;;9.90;99.90;;;;;;5041405;28;20198;-71
2022/04/16 09:41:38;;;;;;;2.40;1.10;;;10.00;99.90;;;;;;5020324;27;20233;-71
2022/04/16 09:44:18;;;;;;;0.80;0.70;;;10.00;99.90;;;;;;5019898;28;20222;-70
2022/04/16 09:46:55;;;;;;;1.15;0.82;;;10.10;99.90;;;;;;5019116;28;20266;-72
2022/04/16 09:49:23;;;;;;;0.82;0.68;;;10.10;99.90;;;;;;4999337;28;20207;-72
2022/04/16 09:51:52;;;;;;;0.80;0.80;;;10.10;99.90;;;;;;4999504;28;20223;-73
2022/04/16 09:54:21;;;;;;;0.77;0.73;;;10.20;99.90;;;;;;5001673;28;20203;-72
2022/04/16 09:56:49;;;;;;;1.33;1.00;;;10.30;99.90;;;;;;5000272;28;20218;-72
2022/04/16 09:59:18;;;;;;;1.57;1.03;;;10.40;99.90;;;;;;5000439;27;20238;-72
2022/04/16 10:01:48;;;;;;;1.70;1.60;;;10.50;99.90;;;;;;4999849;28;20470;-72
2022/04/16 10:04:19;;;;;;;1.75;1.30;;;10.50;99.90;;;;;;5007163;27;20219;-70
2022/04/16 10:06:48;;;;;;;1.60;0.93;;;10.40;99.70;;;;;;5012678;28;20214;-69
2022/04/16 10:09:22;;;;;;;0.60;0.60;;;10.50;99.90;;;;;;5010831;28;20199;-73
2022/04/16 10:14:45;;;;;;;1.65;1.13;;;10.50;99.30;;;;;;4999450;28;20283;-71
2022/04/16 10:17:25;;;;;;;1.40;1.30;;;10.50;99.40;;;;;;5007467;27;20353;-73
2022/04/16 10:19:55;;;;;;;4.30;2.97;;;10.50;99.30;;;;;;5011591;28;20206;-73
2022/04/16 10:22:26;;;;;;;1.52;1.40;;;10.60;99.50;;;;;;5016662;28;20330;-71
2022/04/16 10:24:57;;;;;;;1.73;1.63;;;10.70;99.90;;;;;;5009217;28;20273;-71
2022/04/16 10:27:27;;;;;;;1.30;1.20;;;10.70;99.80;;;;;;5009741;28;20491;-71
2022/04/16 10:29:59;;;;;;;1.10;1.03;;;10.80;99.80;;;;;;5009112;28;20484;-73
2022/04/16 10:32:38;;;;;;;1.00;0.83;;;10.90;99.30;;;;;;5010823;28;20470;-73
2022/04/16 10:35:13;;;;;;;0.90;0.90;;;10.90;99.40;;;;;;5007106;28;20437;-71
2022/04/16 10:37:42;;;;;;;1.33;1.07;;;11.00;99.10;;;;;;5007340;28;20430;-73
2022/04/16 10:40:18;;;;;;;0.97;0.70;;;11.00;99.70;;;;;;5002798;28;20678;-71
2022/04/16 10:43:04;;;;;;;1.60;1.50;;;11.10;99.30;;;;;;4998538;28;20448;-71
2022/04/16 10:45:36;;;;;;;2.03;1.57;;;11.20;99.30;;;;;;5008454;28;20445;-69
2022/04/16 10:48:04;;;;;;;1.90;1.33;;;11.30;99.40;;;;;;5018721;27;20777;-70
2022/04/16 10:50:33;;;;;;;1.13;1.10;;;11.30;99.30;;;;;;5000066;28;21484;-70
2022/04/16 10:53:02;;;;;;;1.87;1.60;;;11.40;99.20;;;;;;5001809;28;20576;-72
2022/04/16 10:55:31;;;;;;;1.60;1.50;;;11.40;98.90;;;;;;5004071;27;20492;-70
2022/04/16 10:58:01;;;;;;;1.03;1.00;;;11.30;98.90;;;;;;5008888;28;20438;-73
2022/04/16 11:00:41;;;;;;;1.63;1.27;;;11.40;99.10;;;;;;5017215;28;20448;-71
2022/04/16 11:03:11;;;;;;;2.08;1.73;;;11.40;99.60;;;;;;5017883;28;20433;-69
2022/04/16 11:05:44;;;;;;;2.00;1.90;;;11.40;99.60;;;;;;5018514;28;20361;-69
2022/04/16 11:08:13;;;;;;;2.27;2.17;;;11.60;99.40;;;;;;5018491;28;20719;-71
2022/04/16 11:10:42;;;;;;;1.73;1.60;;;11.60;98.90;;;;;;5018009;28;20534;-69
2022/04/16 11:13:13;;;;;;;2.33;2.23;;;11.70;99.80;;;;;;5017725;28;20824;-69
2022/04/16 11:15:41;;;;;;;1.40;1.30;;;11.80;99.90;;;;;;5018141;28;20533;-69
2022/04/16 11:18:11;;;;;;;1.60;1.50;;;11.80;99.20;;;;;;5018850;28;20490;-69
2022/04/16 11:20:43;;;;;;;1.20;1.20;;;11.90;98.80;;;;;;5018012;28;20496;-69
2022/04/16 11:23:18;;;;;;;1.60;1.50;;;11.90;98.90;;;;;;5018728;27;20558;-71
2022/04/16 11:34:17;;;;;;;2.07;1.87;;;12.00;97.70;;;;;;5017738;28;20447;-71
2022/04/16 11:36:49;;;;;;;1.00;1.00;;;12.00;97.40;;;;;;5018037;28;20494;-69
2022/04/16 11:39:18;;;;;;;1.47;1.37;;;12.00;97.60;;;;;;5020031;27;20744;-70
2022/04/16 11:41:51;;;;;;;1.67;1.57;;;12.00;97.50;;;;;;5025338;28;20469;-70
2022/04/16 11:44:38;;;;;;;1.10;1.03;;;12.10;97.50;;;;;;5029132;28;20575;-69
2022/04/16 11:47:13;;;;;;;1.30;1.20;;;12.20;97.70;;;;;;5027639;27;20437;-71
2022/04/16 11:49:44;;;;;;;1.30;1.20;;;12.20;97.40;;;;;;5045509;27;20476;-69
2022/04/16 11:52:15;;;;;;;2.30;1.80;;;12.30;97.20;;;;;;5044930;28;20751;-70
2022/04/16 11:54:43;;;;;;;1.60;1.50;;;12.20;97.60;;;;;;5041823;28;20720;-72
2022/04/16 11:57:21;;;;;;;1.63;1.20;;;12.20;97.50;;;;;;5037643;28;20436;-70
2022/04/16 11:59:57;;;;;;;1.03;1.03;;;12.20;97.80;;;;;;5034056;28;20454;-69
2022/04/16 12:02:30;;;;;;;1.80;1.43;;;12.30;97.30;;;;;;5028124;28;20528;-70
2022/04/16 12:05:08;;;;;;;1.37;1.27;;;12.40;97.20;;;;;;5038316;28;20541;-72
2022/04/16 12:07:40;;;;;;;1.00;1.00;;;12.40;97.20;;;;;;5037571;27;20459;-71
2022/04/16 12:10:09;;;;;;;1.00;0.90;;;12.50;97.10;;;;;;5027797;27;20544;-71
2022/04/16 12:12:47;;;;;;;1.10;1.10;;;12.60;97.10;;;;;;5009363;28;20533;-72
2022/04/16 12:15:22;;;;;;;1.30;1.30;;;12.60;96.80;;;;;;5006971;28;20429;-72
2022/04/16 12:17:51;;;;;;;1.37;1.27;;;12.60;96.50;;;;;;5007256;28;20473;-70
2022/04/16 12:20:21;;;;;;;1.07;1.07;;;12.50;96.10;;;;;;4998898;28;20553;-71
2022/04/16 12:22:51;;;;;;;2.10;1.47;;;12.50;96.40;;;;;;4997429;28;20449;-71
2022/04/16 12:25:22;;;;;;;1.20;1.10;;;12.50;96.40;;;;;;5014188;28;20804;-70
2022/04/16 12:27:52;;;;;;;2.53;1.97;;;12.60;96.30;;;;;;5016925;28;20482;-70
2022/04/16 12:30:20;;;;;;;1.67;1.57;;;12.60;95.80;;;;;;5021931;28;20449;-70
2022/04/16 12:32:56;;;;;;;1.30;1.13;;;12.60;95.90;;;;;;5037315;28;20470;-71
2022/04/16 12:35:25;;;;;;;1.37;1.27;;;12.60;96.20;;;;;;5040273;28;20503;-71
2022/04/16 12:37:55;;;;;;;3.80;1.23;;;12.70;96.30;;;;;;5039888;28;20820;-71
2022/04/16 12:40:24;;;;;;;1.40;1.30;;;12.70;95.90;;;;;;5029403;27;20885;-70
2022/04/16 12:42:54;;;;;;;1.20;1.20;;;12.70;95.90;;;;;;5038446;28;20543;-70
2022/04/16 12:45:25;;;;;;;1.50;1.40;;;12.80;96.10;;;;;;5039630;28;21006;-69
2022/04/16 12:47:54;;;;;;;3.90;1.87;;;12.90;96.60;;;;;;5039388;28;20444;-70
2022/04/16 12:50:22;;;;;;;2.30;2.10;;;12.90;96.30;;;;;;5035497;28;20456;-69
2022/04/16 12:52:50;;;;;;;3.00;2.20;;;12.90;96.50;;;;;;5011385;28;20472;-69
2022/04/16 12:55:19;;;;;;;3.70;2.50;;;12.80;96.70;;;;;;5039201;28;20436;-69
2022/04/16 12:57:47;;;;;;;1.90;1.80;;;12.70;96.60;;;;;;5035009;27;20975;-69
2022/04/16 13:00:17;;;;;;;1.70;1.60;;;12.80;96.60;;;;;;5025119;28;20480;-71
2022/04/16 13:02:46;;;;;;;2.40;2.17;;;12.80;97.00;;;;;;5023685;28;20470;-71
2022/04/16 13:05:15;;;;;;;2.80;2.60;;;12.80;97.30;;;;;;5024024;28;20567;-71
2022/04/16 13:07:44;;;;;;;2.40;2.23;;;12.90;96.90;;;;;;5018912;27;20461;-74
2022/04/16 13:10:13;;;;;;;1.70;1.60;;;12.80;96.20;;;;;;5020791;28;20660;-73
2022/04/16 13:12:42;;;;;;;2.63;2.43;;;12.80;96.10;;;;;;5023938;28;20528;-73
2022/04/16 13:15:11;;;;;;;1.60;1.60;;;12.90;95.90;;;;;;5021958;28;20446;-71
2022/04/16 13:17:39;;;;;;;1.90;1.80;;;12.90;95.80;;;;;;5021360;28;20447;-75
2022/04/16 13:20:09;;;;;;;1.87;1.77;;;12.90;95.90;;;;;;5039413;27;21129;-76
2022/04/16 13:22:37;;;;;;;1.97;1.87;;;12.90;96.30;;;;;;5025662;28;21026;-72
2022/04/16 13:25:06;;;;;;;3.47;2.20;;;13.00;96.30;;;;;;5018941;28;20923;-71
2022/04/16 13:27:34;;;;;;;2.60;2.40;;;13.00;96.90;;;;;;5027872;28;21054;-71
2022/04/16 13:30:04;;;;;;;2.53;2.37;;;13.00;96.50;;;;;;5038784;27;20559;-71